Time;durP1;ratioP1;P1;durP2;ratioP2;P2;SDS_P1;SDS_P2;PMS_P1;PMS_P2;Temp;Humidity;BMP_temperature;BMP_pressure;BME280_temperature;BME280_humidity;BME280_pressure;Samples;Min_cycle;Max_cycle;Signal;HPM_P1;HPM_P2
2022/08/09 00:01:48;;;;;;;1.30;1.30;;;;;;;16.97;65.46;102615.59;4954619;29;20492;-87
2022/08/09 00:04:18;;;;;;;1.35;1.30;;;;;;;16.94;65.98;102613.88;4954106;29;20027;-86
2022/08/09 00:06:44;;;;;;;1.40;1.40;;;;;;;16.89;65.48;102613.06;4955170;29;20023;-87
2022/08/09 00:09:10;;;;;;;1.40;1.30;;;;;;;16.82;65.75;102614.88;4954560;29;20035;-87
2022/08/09 00:11:52;;;;;;;1.17;1.17;;;;;;;16.81;66.16;102615.78;4953709;29;20039;-87
2022/08/09 00:14:18;;;;;;;1.20;1.20;;;;;;;16.78;68.26;102610.56;4954930;29;20763;-86
2022/08/09 00:16:43;;;;;;;1.10;1.10;;;;;;;16.74;68.14;102614.13;4955161;29;20026;-87
2022/08/09 00:19:27;;;;;;;1.07;1.07;;;;;;;16.70;66.42;102612.41;4953838;29;20641;-87
2022/08/09 00:21:52;;;;;;;1.20;1.20;;;;;;;16.70;70.24;102614.19;4954622;29;20042;-87
2022/08/09 00:24:18;;;;;;;1.53;1.13;;;;;;;16.67;68.50;102610.72;4954251;29;20027;-87
2022/08/09 00:26:52;;;;;;;0.90;0.90;;;;;;;16.64;66.28;102616.00;4955190;29;20043;-87
2022/08/09 00:29:17;;;;;;;1.30;1.20;;;;;;;16.63;66.50;102619.50;4954913;29;20495;-86
2022/08/09 00:31:43;;;;;;;1.13;1.13;;;;;;;16.63;66.43;102605.53;4954023;29;20027;-87
2022/08/09 00:34:14;;;;;;;1.03;1.03;;;;;;;16.62;66.41;102617.75;4954585;29;20058;-87
2022/08/09 00:36:40;;;;;;;1.00;1.00;;;;;;;16.59;66.76;102611.69;4954532;29;20031;-87
2022/08/09 00:39:06;;;;;;;;;;;;;;;16.57;66.47;102616.97;4954540;28;20051;-87
2022/08/09 00:41:31;;;;;;;1.10;1.10;;;;;;;16.54;66.67;102616.13;4957698;29;20383;-87
2022/08/09 00:44:09;;;;;;;1.00;1.00;;;;;;;16.49;66.35;102611.81;4958397;29;20110;-86
2022/08/09 00:46:35;;;;;;;1.40;1.30;;;;;;;16.50;67.50;102617.91;4958085;29;20039;-87
2022/08/09 00:49:00;;;;;;;1.20;1.20;;;;;;;16.44;67.00;102610.97;4958558;29;20038;-86
2022/08/09 00:51:26;;;;;;;1.20;1.20;;;;;;;16.46;66.96;102608.34;4958252;29;20035;-87
2022/08/09 00:54:08;;;;;;;1.30;1.30;;;;;;;16.43;66.67;102608.38;4957523;29;20163;-86
2022/08/09 00:56:33;;;;;;;1.33;1.33;;;;;;;16.41;67.06;102607.53;4956209;29;20368;-87
2022/08/09 00:58:59;;;;;;;1.40;1.40;;;;;;;16.39;66.97;102617.16;4958164;29;20031;-86
2022/08/09 01:01:39;;;;;;;1.33;1.10;;;;;;;16.38;67.19;102618.94;4957813;29;20038;-87
2022/08/09 01:04:19;;;;;;;1.15;1.15;;;;;;;16.33;67.44;102610.22;4955043;29;20465;-86
2022/08/09 01:07:12;;;;;;;1.58;1.48;;;;;;;16.28;68.16;102610.28;4957814;29;20403;-87
2022/08/09 01:10:29;;;;;;;1.30;1.25;;;;;;;16.29;67.75;102614.66;4958087;29;20118;-87
2022/08/09 01:13:03;;;;;;;1.20;1.20;;;;;;;16.27;67.15;102621.66;4956915;29;20051;-87
2022/08/09 01:15:55;;;;;;;1.30;1.30;;;;;;;16.26;67.20;102619.94;4953525;29;20046;-87
2022/08/09 01:18:41;;;;;;;1.10;1.10;;;;;;;16.26;67.33;102624.28;4958185;29;20022;-87
2022/08/09 01:21:33;;;;;;;1.50;1.40;;;;;;;16.26;67.08;102626.91;4957023;29;20472;-87
2022/08/09 01:24:03;;;;;;;1.30;1.30;;;;;;;16.23;67.11;102621.69;4957938;29;20053;-87
2022/08/09 01:26:51;;;;;;;1.20;1.20;;;;;;;16.21;68.55;102627.81;4957750;29;20031;-87
2022/08/09 01:29:25;;;;;;;1.00;1.00;;;;;;;16.18;67.14;102620.03;4957194;29;20034;-87
2022/08/09 01:31:54;;;;;;;2.00;1.60;;;;;;;16.16;67.19;102618.28;4957176;29;20038;-86
2022/08/09 01:34:21;;;;;;;1.27;1.20;;;;;;;16.13;67.20;102621.81;4957696;29;20078;-87
2022/08/09 01:36:48;;;;;;;1.60;1.50;;;;;;;16.12;66.89;102617.44;4957082;29;20027;-87
2022/08/09 01:39:15;;;;;;;1.33;1.30;;;;;;;16.08;67.38;102613.16;4957579;29;20042;-86
2022/08/09 01:41:42;;;;;;;1.40;1.35;;;;;;;16.04;67.49;102614.03;4956905;29;20023;-86
2022/08/09 01:44:09;;;;;;;1.50;1.40;;;;;;;16.01;67.57;102617.56;4957350;29;20181;-87
2022/08/09 01:46:52;;;;;;;1.30;1.30;;;;;;;15.97;69.63;102607.16;4957259;29;20035;-88
2022/08/09 01:49:20;;;;;;;1.27;1.27;;;;;;;15.93;68.46;102610.66;4957190;29;20027;-87
2022/08/09 01:51:58;;;;;;;1.10;1.10;;;;;;;15.91;68.05;102610.69;4955791;28;20031;-87
2022/08/09 01:54:30;;;;;;;1.40;1.30;;;;;;;15.87;69.28;102609.84;4938401;29;20032;-87
2022/08/09 01:57:19;;;;;;;1.13;1.13;;;;;;;15.81;69.05;102619.47;4937550;29;20026;-87
2022/08/09 02:00:02;;;;;;;1.35;1.25;;;;;;;15.78;69.29;102619.50;4938261;29;20392;-86
2022/08/09 02:02:31;;;;;;;1.30;1.30;;;;;;;15.71;69.01;102619.53;4938016;29;20472;-87
2022/08/09 02:05:22;;;;;;;1.10;1.10;;;;;;;15.69;69.34;102623.94;4937436;29;20429;-86
2022/08/09 02:08:09;;;;;;;1.10;1.10;;;;;;;15.64;69.34;102623.09;4937964;29;20032;-87
2022/08/09 02:10:54;;;;;;;1.02;1.02;;;;;;;15.63;69.45;102623.13;4947795;29;20027;-86
2022/08/09 02:13:22;;;;;;;1.30;1.30;;;;;;;15.57;69.88;102627.50;4957486;29;20141;-86
2022/08/09 02:16:05;;;;;;;1.48;1.20;;;;;;;15.55;70.36;102625.78;4957238;29;20019;-87
2022/08/09 02:18:33;;;;;;;1.52;1.42;;;;;;;15.55;69.65;102620.56;4939254;29;20042;-87
2022/08/09 02:21:04;;;;;;;1.27;1.10;;;;;;;15.54;69.48;102626.66;4956958;29;20019;-86
2022/08/09 02:23:52;;;;;;;0.98;0.98;;;;;;;15.51;69.38;102619.72;4956821;29;20381;-87
2022/08/09 02:26:18;;;;;;;1.33;1.30;;;;;;;15.51;69.28;102624.94;4956978;29;20027;-87
2022/08/09 02:29:17;;;;;;;1.60;1.50;;;;;;;15.50;69.37;102617.09;4956961;29;20024;-87
2022/08/09 02:31:45;;;;;;;1.30;1.30;;;;;;;15.49;68.90;102616.25;4950101;29;20102;-87
2022/08/09 02:34:17;;;;;;;1.30;1.20;;;;;;;15.46;69.44;102613.63;4956046;29;20063;-86
2022/08/09 02:36:47;;;;;;;1.60;1.23;;;;;;;15.46;69.19;102615.41;4956795;29;20447;-87
2022/08/09 02:39:21;;;;;;;1.20;1.20;;;;;;;15.46;69.93;102618.00;4955737;29;20472;-87
2022/08/09 02:41:57;;;;;;;1.10;1.10;;;;;;;15.43;69.56;102618.88;4956661;29;20118;-87
2022/08/09 02:44:26;;;;;;;1.20;1.15;;;;;;;15.42;69.57;102617.19;4956858;29;20037;-87
2022/08/09 02:46:56;;;;;;;1.20;1.20;;;;;;;15.39;69.72;102612.81;4955449;29;20114;-86
2022/08/09 02:49:22;;;;;;;1.65;1.55;;;;;;;15.36;71.27;102612.84;4956386;29;20023;-87
2022/08/09 02:51:58;;;;;;;1.50;1.40;;;;;;;15.35;70.36;102612.84;4956267;29;20039;-87
2022/08/09 02:54:24;;;;;;;1.60;1.50;;;;;;;15.34;70.33;102608.50;4955993;29;20031;-86
2022/08/09 02:56:51;;;;;;;1.13;1.08;;;;;;;15.31;72.27;102611.16;4955704;29;20020;-86
2022/08/09 02:59:18;;;;;;;1.33;1.33;;;;;;;15.29;69.96;102605.91;4956015;29;20034;-86
2022/08/09 03:01:45;;;;;;;1.27;1.27;;;;;;;15.28;70.23;102615.53;4956076;29;20039;-87
2022/08/09 03:04:11;;;;;;;;;;;;;;;15.27;70.57;102608.53;4956010;28;20404;-87
2022/08/09 03:06:39;;;;;;;1.35;1.35;;;;;;;15.26;70.22;102614.66;4955417;29;19910;-87
2022/08/09 03:09:07;;;;;;;1.58;1.48;;;;;;;15.25;70.73;102614.69;4955796;29;20103;-88
2022/08/09 03:11:33;;;;;;;2.08;1.60;;;;;;;15.20;71.69;102616.44;4955619;29;20117;-86
2022/08/09 03:14:27;;;;;;;1.50;1.40;;;;;;;15.16;70.92;102612.97;4927787;29;20060;-87
2022/08/09 03:17:06;;;;;;;1.35;1.35;;;;;;;15.12;70.77;102611.25;4900682;29;20050;-87
2022/08/09 03:19:32;;;;;;;1.65;1.40;;;;;;;15.10;73.27;102607.75;4936354;29;20118;-87
2022/08/09 03:21:59;;;;;;;1.60;1.50;;;;;;;15.09;71.00;102606.03;4935328;29;20027;-86
2022/08/09 03:24:24;;;;;;;1.20;1.20;;;;;;;15.06;71.29;102608.69;4936621;29;20040;-87
2022/08/09 03:26:51;;;;;;;1.60;1.50;;;;;;;15.06;71.10;102616.53;4936487;29;20031;-87
2022/08/09 03:29:16;;;;;;;1.30;1.30;;;;;;;15.02;70.88;102605.22;4935908;29;20122;-87
2022/08/09 03:31:42;;;;;;;1.50;1.40;;;;;;;15.02;71.42;102607.84;4936396;29;20059;-87
2022/08/09 03:34:10;;;;;;;1.35;1.30;;;;;;;15.00;71.20;102604.34;4935358;29;20105;-87
2022/08/09 03:36:35;;;;;;;1.50;1.40;;;;;;;15.00;71.09;102606.09;4939000;29;20031;-87
2022/08/09 03:39:01;;;;;;;1.37;1.30;;;;;;;15.00;71.07;102612.19;4955306;29;20121;-87
2022/08/09 03:41:26;;;;;;;1.30;1.30;;;;;;;14.98;71.34;102613.94;4955081;29;20030;-87
2022/08/09 03:44:11;;;;;;;1.13;1.13;;;;;;;14.98;72.01;102612.19;4955140;29;20399;-86
2022/08/09 03:46:36;;;;;;;1.08;1.08;;;;;;;14.95;71.94;102609.63;4955419;29;20027;-87
2022/08/09 03:49:04;;;;;;;1.07;1.07;;;;;;;14.91;71.40;102609.66;4954261;29;20023;-87
2022/08/09 03:51:51;;;;;;;0.98;0.98;;;;;;;14.93;71.82;102616.59;4955569;29;20039;-87
2022/08/09 03:54:17;;;;;;;1.27;1.17;;;;;;;14.89;71.51;102614.00;4955478;29;20028;-87
2022/08/09 03:57:14;;;;;;;1.40;1.30;;;;;;;14.85;71.34;102607.94;4954724;29;20407;-87
2022/08/09 03:59:43;;;;;;;1.58;1.48;;;;;;;14.86;71.68;102612.25;4955338;29;20114;-87
2022/08/09 04:02:08;;;;;;;1.33;1.23;;;;;;;14.84;71.77;102621.88;4955038;29;20197;-87
2022/08/09 04:04:50;;;;;;;1.30;1.30;;;;;;;14.84;73.29;102614.03;4954669;29;20101;-86
2022/08/09 04:07:16;;;;;;;1.15;1.15;;;;;;;14.79;72.14;102621.00;4955204;29;20062;-87
2022/08/09 04:09:41;;;;;;;1.23;1.20;;;;;;;14.76;72.68;102613.16;4955034;29;20115;-87
2022/08/09 04:12:29;;;;;;;1.23;1.23;;;;;;;14.78;72.01;102614.03;4954691;29;20050;-87
2022/08/09 04:14:54;;;;;;;1.20;1.20;;;;;;;14.77;71.66;102612.31;4962404;28;20039;-87
2022/08/09 04:17:19;;;;;;;1.40;1.40;;;;;;;14.76;72.01;102610.56;4959002;28;20035;-88
2022/08/09 04:19:44;;;;;;;1.33;1.30;;;;;;;14.75;72.72;102612.31;4955439;29;20480;-87
2022/08/09 04:22:26;;;;;;;1.60;1.50;;;;;;;14.74;72.09;102614.94;4954699;29;20031;-88
2022/08/09 04:24:51;;;;;;;1.15;1.15;;;;;;;14.72;72.28;102617.56;4953977;29;20027;-87
2022/08/09 04:27:17;;;;;;;1.17;1.17;;;;;;;14.71;72.02;102613.19;4954848;29;20027;-87
2022/08/09 04:30:00;;;;;;;1.60;1.50;;;;;;;14.71;72.06;102614.97;4954986;29;20081;-87
2022/08/09 04:32:27;;;;;;;1.42;1.40;;;;;;;14.71;72.17;102626.25;4954446;29;20024;-87
2022/08/09 04:34:53;;;;;;;1.05;1.05;;;;;;;14.71;71.85;102626.25;4954905;29;20043;-87
2022/08/09 04:37:18;;;;;;;1.23;1.23;;;;;;;14.72;72.13;102627.16;4954961;29;20086;-87
2022/08/09 04:39:59;;;;;;;1.53;1.43;;;;;;;14.69;72.05;102621.94;4954448;29;20031;-87
2022/08/09 04:42:28;;;;;;;1.67;1.58;;;;;;;14.69;71.93;102629.75;4955127;29;20053;-88
2022/08/09 04:44:54;;;;;;;3.00;1.40;;;;;;;14.65;72.66;102624.50;4954782;29;20027;-87
2022/08/09 04:47:35;;;;;;;;;;;;;;;14.66;72.23;102641.94;4955398;29;20031;-87
2022/08/09 04:50:00;;;;;;;3.40;2.80;;;;;;;14.60;76.27;102631.50;4955021;29;19918;-88
2022/08/09 04:52:42;;;;;;;2.47;2.23;;;;;;;14.57;73.90;102635.88;4954549;29;20531;-87
2022/08/09 04:55:08;;;;;;;2.30;2.10;;;;;;;14.56;74.70;102629.78;4954641;29;20058;-89
2022/08/09 04:57:33;;;;;;;2.23;2.03;;;;;;;14.58;74.61;102635.03;4954479;29;20059;-87
2022/08/09 04:59:58;;;;;;;1.63;1.53;;;;;;;14.58;74.36;102646.31;4954953;29;20031;-93
2022/08/09 05:02:24;;;;;;;1.77;1.67;;;;;;;14.55;74.01;102638.50;4955986;29;20059;-91
2022/08/09 05:05:07;;;;;;;2.23;1.90;;;;;;;14.58;77.18;102646.31;4954846;29;20034;-88
2022/08/09 05:07:32;;;;;;;4.80;2.60;;;;;;;14.56;77.89;102648.06;4953935;29;20102;-86
2022/08/09 05:09:57;;;;;;;3.50;2.30;;;;;;;14.55;75.46;102646.31;4954402;29;20115;-85
2022/08/09 05:12:23;;;;;;;2.30;2.10;;;;;;;14.56;75.37;102648.06;4954389;29;20041;-85
2022/08/09 05:14:48;;;;;;;2.00;1.90;;;;;;;14.59;75.12;102649.78;4953993;29;20024;-92
2022/08/09 05:17:32;;;;;;;1.90;1.80;;;;;;;14.64;75.21;102655.88;4955167;29;20453;-91
2022/08/09 05:19:57;;;;;;;1.60;1.50;;;;;;;14.66;74.16;102654.16;4955823;29;20040;-92
2022/08/09 05:22:28;;;;;;;1.60;1.50;;;;;;;14.70;74.96;102649.81;4956323;29;20034;-95
2022/08/09 05:24:54;;;;;;;1.55;1.45;;;;;;;14.74;74.84;102649.78;4959024;29;20047;-96
2022/08/09 05:27:19;;;;;;;1.70;1.60;;;;;;;14.78;76.54;102654.13;4961080;28;20035;-96
2022/08/09 05:30:03;;;;;;;1.90;1.80;;;;;;;14.81;75.56;102654.09;4964331;29;20019;-95
2022/08/09 05:32:28;;;;;;;2.90;2.05;;;;;;;14.83;76.54;102654.97;4964808;29;20108;-96
2022/08/09 05:34:54;;;;;;;2.93;2.50;;;;;;;14.83;78.80;102648.88;4965023;29;20031;-96
2022/08/09 05:37:19;;;;;;;2.50;2.30;;;;;;;14.85;77.66;102659.31;4961112;29;20034;-96
2022/08/09 05:39:45;;;;;;;2.63;2.33;;;;;;;14.83;76.97;102657.56;4960562;29;20024;-96
2022/08/09 05:42:12;;;;;;;2.00;1.90;;;;;;;14.86;77.80;102659.31;4964599;29;20082;-96
2022/08/09 05:44:37;;;;;;;1.95;1.80;;;;;;;14.90;76.60;102662.81;4966243;29;20349;-93
2022/08/09 05:47:03;;;;;;;2.30;2.10;;;;;;;14.94;74.53;102662.78;4963114;29;20046;-96
2022/08/09 05:49:28;;;;;;;1.90;1.80;;;;;;;14.99;75.78;102667.97;4963040;29;20090;-91
2022/08/09 05:52:20;;;;;;;2.50;2.30;;;;;;;15.05;77.23;102667.94;4958741;29;20043;-91
2022/08/09 05:54:45;;;;;;;2.30;2.10;;;;;;;15.09;76.73;102674.91;4960304;29;20042;-93
2022/08/09 05:57:25;;;;;;;3.87;2.73;;;;;;;15.10;77.97;102666.19;4959288;29;20019;-91
2022/08/09 05:59:50;;;;;;;2.85;2.33;;;;;;;15.17;77.98;102673.97;4959335;29;20031;-92
2022/08/09 06:02:26;;;;;;;5.03;3.20;;;;;;;15.18;79.34;102668.75;4957608;29;20182;-91
2022/08/09 06:04:51;;;;;;;4.72;3.30;;;;;;;15.22;79.30;102669.59;4959220;29;20031;-92
2022/08/09 06:07:17;;;;;;;3.23;2.90;;;;;;;15.27;77.99;102673.94;4958315;29;20027;-88
2022/08/09 06:09:54;;;;;;;3.37;2.73;;;;;;;15.33;77.92;102675.66;4956458;29;20047;-84
2022/08/09 06:12:20;;;;;;;5.28;3.25;;;;;;;15.38;79.45;102681.69;4956632;29;20030;-84
2022/08/09 06:14:46;;;;;;;3.07;2.70;;;;;;;15.41;77.73;102684.31;4957108;29;20024;-86
2022/08/09 06:17:29;;;;;;;4.97;3.40;;;;;;;15.46;78.78;102686.91;4956169;29;20114;-83
2022/08/09 06:20:04;;;;;;;5.40;3.40;;;;;;;15.52;78.52;102681.66;4956552;29;20098;-83
2022/08/09 06:22:30;;;;;;;3.47;2.70;;;;;;;15.57;77.75;102692.94;4956813;29;20106;-86
2022/08/09 06:24:55;;;;;;;2.70;2.40;;;;;;;15.67;78.50;102693.75;4955567;29;20568;-85
2022/08/09 06:27:36;;;;;;;4.07;3.20;;;;;;;15.70;78.72;102687.63;4956906;29;20046;-85
2022/08/09 06:30:01;;;;;;;3.00;2.53;;;;;;;15.78;78.31;102695.41;4954059;29;20066;-84
2022/08/09 06:32:27;;;;;;;3.45;2.67;;;;;;;15.85;78.82;102690.16;4956327;29;20118;-85
2022/08/09 06:34:52;;;;;;;4.27;3.40;;;;;;;15.95;78.25;102690.06;4956094;29;20019;-85
2022/08/09 06:37:17;;;;;;;6.37;3.80;;;;;;;16.01;78.81;102685.66;4955301;28;20030;-85
2022/08/09 06:39:58;;;;;;;5.97;3.57;;;;;;;16.10;78.67;102692.53;4956304;29;20027;-86
2022/08/09 06:42:23;;;;;;;6.00;3.75;;;;;;;16.18;79.15;102697.72;4956236;29;20031;-87
2022/08/09 06:45:08;;;;;;;8.03;4.37;;;;;;;16.26;79.44;102697.66;4955623;29;20487;-85
2022/08/09 06:47:33;;;;;;;7.65;4.40;;;;;;;16.35;80.28;102697.56;4956130;29;20019;-86
2022/08/09 06:50:10;;;;;;;7.40;4.10;;;;;;;17.04;78.44;102682.81;4955921;29;20038;-87
2022/08/09 06:52:45;;;;;;;4.63;3.40;;;;;;;18.81;76.13;102685.13;4955824;29;20055;-87
2022/08/09 06:55:20;;;;;;;3.97;3.03;;;;;;;21.69;72.77;102688.16;4956179;29;20384;-89
2022/08/09 06:57:46;;;;;;;5.67;3.27;;;;;;;24.18;64.45;102701.75;4956505;29;20394;-88
2022/08/09 07:00:13;;;;;;;4.37;2.90;;;;;;;26.09;59.76;102690.06;4955675;29;20369;-87
2022/08/09 07:02:47;;;;;;;4.25;2.60;;;;;;;27.74;55.06;102704.16;4950920;29;20043;-89
2022/08/09 07:05:13;;;;;;;4.75;3.08;;;;;;;28.84;51.65;102709.97;4955687;29;20028;-88
2022/08/09 07:07:47;;;;;;;3.13;2.60;;;;;;;29.54;47.05;102703.66;4956300;29;20094;-88
2022/08/09 07:10:13;;;;;;;3.30;2.78;;;;;;;29.88;42.59;102708.50;4955673;29;20472;-89
2022/08/09 07:12:38;;;;;;;2.57;2.37;;;;;;;29.63;46.86;102722.72;4955784;29;20027;-90
2022/08/09 07:15:04;;;;;;;2.97;2.20;;;;;;;29.20;45.38;102716.56;4955987;29;20418;-87
2022/08/09 07:17:30;;;;;;;3.20;2.30;;;;;;;28.45;46.55;102714.16;4956181;29;20027;-87
2022/08/09 07:20:15;;;;;;;2.47;2.27;;;;;;;27.53;44.77;102711.59;4955707;29;20487;-87
2022/08/09 07:22:40;;;;;;;6.05;3.83;;;;;;;26.02;47.46;102710.81;4881715;29;20069;-88
2022/08/09 07:25:13;;;;;;;4.37;3.47;;;;;;;24.79;51.77;102710.53;4951500;29;20020;-91
2022/08/09 07:27:50;;;;;;;3.50;2.78;;;;;;;23.96;53.54;102709.75;4948050;29;20358;-91
2022/08/09 07:42:57;;;;;;;4.53;3.20;;;;;;;21.70;59.37;102708.38;5006726;27;20396;-88
2022/08/09 07:45:24;;;;;;;4.00;2.90;;;;;;;21.58;60.94;102706.97;4987083;28;20110;-87
2022/08/09 07:47:51;;;;;;;3.60;2.60;;;;;;;21.57;60.60;102709.66;4987664;28;20034;-88
2022/08/09 07:50:18;;;;;;;3.40;2.20;;;;;;;21.53;60.96;102710.66;4987798;28;20046;-90
2022/08/09 07:52:43;;;;;;;2.88;2.60;;;;;;;21.52;60.78;102709.81;4988157;28;20023;-90
2022/08/09 07:55:09;;;;;;;4.80;3.00;;;;;;;21.44;60.82;102707.41;4987682;28;20034;-88
2022/08/09 07:57:34;;;;;;;3.10;2.80;;;;;;;21.38;61.70;102715.53;4988505;28;20018;-87
2022/08/09 07:59:59;;;;;;;3.43;2.43;;;;;;;21.40;61.65;102718.13;4987799;28;20471;-89
2022/08/09 08:02:25;;;;;;;2.87;2.50;;;;;;;21.38;61.53;102712.91;4987222;28;20432;-87
2022/08/09 08:04:50;;;;;;;2.70;2.50;;;;;;;21.43;61.19;102723.31;4996423;28;20097;-89
2022/08/09 08:07:15;;;;;;;2.80;2.00;;;;;;;21.50;61.17;102716.06;5007927;28;20367;-89
2022/08/09 08:09:41;;;;;;;1.97;1.87;;;;;;;21.62;61.46;102717.47;5006697;28;20481;-90
2022/08/09 08:12:06;;;;;;;1.87;1.77;;;;;;;21.73;61.29;102721.47;5007472;28;20466;-89
2022/08/09 08:14:31;;;;;;;2.90;2.30;;;;;;;21.75;59.11;102719.66;5007284;28;20050;-92
2022/08/09 08:16:56;;;;;;;2.73;2.40;;;;;;;21.78;60.66;102725.75;5006377;28;20382;-92
2022/08/09 08:19:22;;;;;;;2.73;2.20;;;;;;;21.85;59.98;102722.00;5007447;28;20056;-90
2022/08/09 08:22:03;;;;;;;2.20;2.00;;;;;;;21.92;60.65;102718.25;5006911;28;20549;-91
2022/08/09 08:24:28;;;;;;;4.13;3.00;;;;;;;21.96;59.42;102719.00;5005736;28;20061;-90
2022/08/09 08:26:54;;;;;;;4.53;2.90;;;;;;;22.00;59.40;102710.91;5007009;28;20079;-89
2022/08/09 08:29:39;;;;;;;3.63;2.60;;;;;;;22.05;58.57;102714.28;5007057;28;20022;-90
2022/08/09 08:35:06;;;;;;;4.60;2.85;;;;;;;22.10;57.80;102702.66;5046500;28;20595;-89
2022/08/09 08:37:39;;;;;;;3.00;2.50;;;;;;;22.16;58.19;102702.47;4996844;28;20042;-87
2022/08/09 08:40:05;;;;;;;2.40;2.20;;;;;;;22.30;58.88;102715.19;4987014;28;20026;-89
2022/08/09 08:42:56;;;;;;;2.80;2.00;;;;;;;22.49;58.52;102712.78;4985691;28;20054;-89
2022/08/09 08:45:32;;;;;;;2.67;1.98;;;;;;;22.59;54.52;102716.81;4985221;23;20089;-89
2022/08/09 08:47:58;;;;;;;4.07;2.25;;;;;;;22.63;55.15;102717.56;4967430;28;20049;-88
2022/08/09 08:50:24;;;;;;;3.25;2.13;;;;;;;22.68;55.31;102716.47;4967495;28;20035;-89
2022/08/09 08:52:52;;;;;;;4.07;1.92;;;;;;;22.77;55.48;102712.63;4959649;28;20036;-90
2022/08/09 08:55:18;;;;;;;2.30;2.08;;;;;;;22.89;54.25;102721.88;4954088;28;20038;-89
2022/08/09 08:57:44;;;;;;;4.97;2.53;;;;;;;22.90;54.80;102717.47;4953467;28;20384;-88
2022/08/09 09:00:30;;;;;;;2.42;2.10;;;;;;;22.92;55.30;102723.53;4954046;28;20399;-88
2022/08/09 09:03:14;;;;;;;2.40;2.20;;;;;;;23.02;55.00;102726.72;4954050;28;20066;-88
2022/08/09 09:05:46;;;;;;;4.50;2.45;;;;;;;23.10;54.29;102722.88;4953404;29;20042;-88
2022/08/09 09:08:38;;;;;;;2.30;2.10;;;;;;;23.22;52.61;102728.63;4954142;29;20042;-90
2022/08/09 09:11:15;;;;;;;4.15;2.20;;;;;;;23.27;52.35;102732.84;4954346;28;20035;-90
2022/08/09 09:13:49;;;;;;;3.03;2.28;;;;;;;23.16;50.97;102732.34;4952751;28;20525;-89
2022/08/09 09:16:14;;;;;;;2.97;2.10;;;;;;;23.17;53.55;102731.44;4954363;29;20032;-90
2022/08/09 09:19:21;;;;;;;2.20;1.75;;;;;;;23.39;51.28;102728.81;4954408;29;20033;-92
2022/08/09 09:22:15;;;;;;;1.85;1.75;;;;;;;23.62;51.59;102744.72;4954071;28;20054;-89
2022/08/09 09:25:07;;;;;;;2.30;2.10;;;;;;;23.67;51.39;102732.13;4954407;29;20040;-90
2022/08/09 09:27:31;;;;;;;2.95;2.20;;;;;;;23.58;50.96;102738.69;4953292;28;20035;-89
2022/08/09 09:30:13;;;;;;;3.33;2.27;;;;;;;23.59;51.04;102741.28;4953372;29;20031;-89
2022/08/09 09:33:09;;;;;;;3.72;1.92;;;;;;;23.76;50.87;102737.06;4953690;28;20035;-92
2022/08/09 09:36:11;;;;;;;2.80;1.95;;;;;;;23.86;51.19;102734.91;4953883;29;20019;-89
2022/08/09 09:39:01;;;;;;;2.08;1.85;;;;;;;24.06;50.08;102732.28;4954191;29;20193;-89
2022/08/09 09:41:35;;;;;;;1.90;1.80;;;;;;;24.20;48.91;102725.53;4953453;29;20035;-88
2022/08/09 09:44:03;;;;;;;2.38;1.80;;;;;;;24.27;48.72;102728.78;4953683;29;20146;-89
2022/08/09 09:46:33;;;;;;;3.38;1.67;;;;;;;24.32;49.26;102724.16;4953799;28;20044;-91
2022/08/09 09:49:06;;;;;;;3.47;1.80;;;;;;;24.33;47.19;102725.84;4953075;29;20023;-91
2022/08/09 09:51:40;;;;;;;2.50;1.80;;;;;;;24.37;48.55;102723.00;4953653;29;20027;-89
2022/08/09 09:54:14;;;;;;;1.83;1.70;;;;;;;24.43;46.81;102732.47;4953119;29;20027;-91
2022/08/09 09:56:55;;;;;;;2.00;1.75;;;;;;;24.45;47.65;102730.63;4953692;29;20081;-89
2022/08/09 09:59:48;;;;;;;1.75;1.48;;;;;;;24.60;48.31;102728.22;4953889;29;20463;-89
2022/08/09 10:02:14;;;;;;;1.45;1.35;;;;;;;24.73;47.12;102726.75;4952763;28;20038;-89
2022/08/09 10:04:41;;;;;;;1.50;1.40;;;;;;;24.88;47.07;102732.31;4952769;28;20028;-89
2022/08/09 10:07:26;;;;;;;1.33;1.00;;;;;;;25.08;45.28;102739.31;4953383;29;20024;-89
2022/08/09 10:09:54;;;;;;;1.33;1.10;;;;;;;25.13;44.88;102727.56;4953015;28;20023;-89
2022/08/09 10:12:43;;;;;;;1.17;1.13;;;;;;;25.29;45.52;102732.13;4953683;29;20317;-89
2022/08/09 10:15:31;;;;;;;1.67;1.50;;;;;;;25.10;42.27;102735.69;4952647;29;20117;-88
2022/08/09 10:18:09;;;;;;;4.07;1.63;;;;;;;25.16;44.78;102728.34;4953260;29;20403;-90
2022/08/09 10:20:52;;;;;;;2.50;1.40;;;;;;;25.07;41.86;102738.47;4953201;28;20467;-88
2022/08/09 10:23:21;;;;;;;2.15;1.40;;;;;;;24.73;42.55;102726.75;4952648;29;20399;-89
2022/08/09 10:25:48;;;;;;;1.35;1.25;;;;;;;24.85;44.60;102727.13;4951133;28;20088;-89
2022/08/09 10:28:13;;;;;;;1.85;1.50;;;;;;;25.08;43.79;102720.72;4952970;29;20027;-91
2022/08/09 10:30:39;;;;;;;1.58;1.40;;;;;;;25.17;43.70;102727.41;4952407;29;20041;-88
2022/08/09 10:33:04;;;;;;;2.42;1.40;;;;;;;25.27;42.43;102728.69;4953102;28;20024;-87
2022/08/09 10:35:30;;;;;;;1.63;1.30;;;;;;;25.34;41.09;102723.94;4982769;28;20055;-85
2022/08/09 10:41:24;;;;;;;3.08;1.38;;;;;;;25.39;41.11;102717.47;4933019;29;19927;-88
2022/08/09 10:43:50;;;;;;;1.88;1.30;;;;;;;25.56;42.08;102707.81;4933666;29;20043;-90
2022/08/09 10:46:45;;;;;;;2.42;0.98;;;;;;;25.79;42.62;102703.16;4933310;28;20040;-89
2022/08/09 10:49:46;;;;;;;1.42;1.33;;;;;;;25.96;41.65;102707.59;4934111;28;20534;-89
2022/08/09 10:52:44;;;;;;;1.45;1.17;;;;;;;26.11;39.84;102709.50;4933220;28;20027;-89
2022/08/09 10:55:25;;;;;;;1.30;1.20;;;;;;;26.07;40.73;102702.59;4933449;28;20035;-89
2022/08/09 10:57:52;;;;;;;1.90;1.20;;;;;;;26.11;40.75;102695.38;4943160;28;20189;-89
2022/08/09 11:00:37;;;;;;;1.27;1.13;;;;;;;26.18;40.56;102689.63;4952567;28;20031;-89
2022/08/09 11:03:19;;;;;;;0.70;0.70;;;;;;;26.41;41.50;102692.84;4952765;29;20023;-88
2022/08/09 11:06:14;;;;;;;0.50;0.50;;;;;;;26.73;39.30;102694.72;4952867;29;20031;-89
2022/08/09 11:08:44;;;;;;;1.10;0.85;;;;;;;26.81;40.82;102698.72;4954189;28;20104;-89
2022/08/09 11:11:09;;;;;;;0.85;0.85;;;;;;;26.84;38.94;102691.50;4952810;28;20077;-90
2022/08/09 11:13:35;;;;;;;1.00;0.90;;;;;;;26.90;39.36;102691.16;4952029;28;20440;-87
2022/08/09 11:16:31;;;;;;;0.70;0.70;;;;;;;27.12;38.17;102701.47;4952213;28;20038;-88
2022/08/09 11:18:57;;;;;;;1.13;1.10;;;;;;;27.08;38.55;102699.91;5175940;23;20491;-87
2022/08/09 11:21:59;;;;;;;0.90;0.90;;;;;;;27.14;37.88;102696.91;4974090;28;20136;-86
2022/08/09 11:24:24;;;;;;;1.10;1.10;;;;;;;27.19;38.42;102702.84;4932243;28;20066;-93
2022/08/09 11:26:49;;;;;;;1.25;1.15;;;;;;;27.24;38.34;102687.47;4962055;28;20463;-88
2022/08/09 11:29:52;;;;;;;1.40;1.30;;;;;;;27.22;36.86;102688.47;5057731;23;20055;-86
2022/08/09 11:32:39;;;;;;;1.20;1.10;;;;;;;27.25;37.30;102694.47;4962143;28;20505;-85
2022/08/09 11:35:23;;;;;;;2.80;1.70;;;;;;;27.09;37.09;102683.84;4970521;28;20038;-86
2022/08/09 11:37:50;;;;;;;1.67;1.20;;;;;;;27.00;38.40;102675.53;4971320;28;20038;-86
2022/08/09 11:40:35;;;;;;;1.13;1.02;;;;;;;26.95;38.64;102665.97;4970468;28;20031;-85
2022/08/09 11:43:01;;;;;;;1.10;0.90;;;;;;;27.11;38.36;102665.97;4970788;28;20045;-87
2022/08/09 11:45:28;;;;;;;0.90;0.90;;;;;;;27.35;38.31;102669.97;4970524;28;20030;-85
2022/08/09 11:47:59;;;;;;;0.75;0.75;;;;;;;27.54;36.76;102667.97;4969939;28;20062;-85
2022/08/09 11:50:26;;;;;;;2.55;1.13;;;;;;;27.51;36.80;102670.81;4965583;28;20391;-85
2022/08/09 11:53:17;;;;;;;0.90;0.90;;;;;;;27.41;36.13;102659.81;4971801;23;20502;-85
2022/08/09 11:55:43;;;;;;;1.20;0.85;;;;;;;27.52;37.67;102658.38;4966263;28;20039;-87
2022/08/09 11:58:30;;;;;;;;;;;;;;;27.40;35.33;102658.09;4969052;28;20475;-87
2022/08/09 12:01:52;;;;;;;1.48;1.38;;;;;;;27.67;37.92;102657.44;4967964;28;19953;-88
2022/08/09 12:04:18;;;;;;;1.45;0.77;;;;;;;27.96;35.01;102660.16;4964091;28;20041;-87
2022/08/09 12:06:55;;;;;;;;;;;;;;;28.12;37.06;102653.91;4966102;28;20027;-87
2022/08/09 12:09:30;;;;;;;1.45;0.90;;;;;;;28.14;35.95;102652.00;4969350;28;19940;-88
2022/08/09 12:12:04;;;;;;;0.97;0.90;;;;;;;28.16;36.57;102656.28;4970197;28;20034;-86
2022/08/09 12:14:42;;;;;;;0.95;0.90;;;;;;;28.24;36.12;102653.13;4969942;28;20110;-89